Brentwood, California
Current Conditions -  °F | °C
As of 1:53 AM on Sunday 21 Dec 2014 (Local Time) from KLVK Reporting Station
Overcast Overcast  
Wind Chill: 57°   Ceiling: 2500
Heat Index: 57°   Visibility: 10mi
Dew Point: 54°   Wind: 5mph
Humidity: 89%   Direction: 270°W
Pressure: 30.26"   Gusts: NA
Location:  37.93°N, 121.69°W
Report Text: KLVK 210953Z AUTO 27004KT 10SM FEW018 BKN025 OVC048 14/12 A3026 RMK AO2 SLP246 T01390122
Loading
Personal Weather Stations






























Interactive Weather Map New forecast layout! Learn more

10-Day Weather Forecast

Advertisements
Track Severe Weather on mobile